createdAt,value
2018-04-24T00:00:23.245Z,22.6
2018-04-24T00:01:13.305Z,22.6
2018-04-24T00:02:03.374Z,22.6
2018-04-24T00:02:53.446Z,22.6
2018-04-24T00:03:43.488Z,22.6
2018-04-24T00:04:33.271Z,22.6
2018-04-24T00:05:23.637Z,22.6
2018-04-24T00:06:13.689Z,22.6
2018-04-24T00:07:03.755Z,22.6
2018-04-24T00:07:53.814Z,22.5
2018-04-24T00:08:43.881Z,22.5
2018-04-24T00:09:33.949Z,22.5
2018-04-24T00:10:23.721Z,22.5
2018-04-24T00:11:14.066Z,22.5
2018-04-24T00:12:04.128Z,22.5
2018-04-24T00:12:53.920Z,22.5
2018-04-24T00:13:44.267Z,22.5
2018-04-24T00:14:34.317Z,22.5
2018-04-24T00:15:24.388Z,22.5
2018-04-24T00:16:14.175Z,22.4
2018-04-24T00:17:04.510Z,22.4
2018-04-24T00:17:54.590Z,22.4
2018-04-24T00:18:44.653Z,22.4
2018-04-24T00:19:34.710Z,22.4
2018-04-24T00:20:24.780Z,22.4
2018-04-24T00:21:14.849Z,22.4
2018-04-24T00:22:04.628Z,22.4
2018-04-24T00:22:54.401Z,22.4
2018-04-24T00:23:44.763Z,22.4
2018-04-24T00:24:34.810Z,22.4
2018-04-24T00:25:25.188Z,22.4
2018-04-24T00:26:15.220Z,22.4
2018-04-24T00:27:05.003Z,22.4
2018-04-24T00:27:55.424Z,22.4
2018-04-24T00:28:45.423Z,22.4
2018-04-24T00:29:35.477Z,22.4
2018-04-24T00:30:25.538Z,22.4
2018-04-24T00:31:15.609Z,22.4
2018-04-24T00:32:05.693Z,22.4
2018-04-24T00:32:55.750Z,22.4
2018-04-24T00:33:45.792Z,22.4
2018-04-24T00:34:35.852Z,22.4
2018-04-24T00:35:25.940Z,22.4
2018-04-24T00:36:15.708Z,22.4
2018-04-24T00:37:05.785Z,22.4
2018-04-24T00:37:56.132Z,22.3
2018-04-24T00:38:45.905Z,22.3
2018-04-24T00:39:36.261Z,22.3
2018-04-24T00:40:26.307Z,22.4
2018-04-24T00:41:15.813Z,22.3
2018-04-24T00:42:06.439Z,22.3
2018-04-24T00:42:56.503Z,22.3
2018-04-24T00:43:46.565Z,22.3
2018-04-24T00:44:36.626Z,22.3
2018-04-24T00:45:26.693Z,22.3
2018-04-24T00:46:16.464Z,22.3
2018-04-24T00:47:06.816Z,22.3
2018-04-24T00:47:56.876Z,22.3
2018-04-24T00:48:46.942Z,22.3
2018-04-24T00:49:37.018Z,22.3
2018-04-24T00:50:27.070Z,22.3
2018-04-24T00:51:17.168Z,22.3
2018-04-24T00:52:07.217Z,22.3
2018-04-24T00:52:57.282Z,22.3
2018-04-24T00:53:47.328Z,22.3
2018-04-24T00:54:37.108Z,22.3
2018-04-24T00:55:27.184Z,22.3
2018-04-24T00:56:17.518Z,22.3
2018-04-24T00:57:07.587Z,22.3
2018-04-24T00:57:57.375Z,22.2
2018-04-24T00:58:47.741Z,22.3
2018-04-24T00:59:37.501Z,22.3
2018-04-24T01:00:27.656Z,22.3
2018-04-24T01:01:17.921Z,22.3
2018-04-24T01:02:07.979Z,22.3
2018-04-24T01:02:58.037Z,22.3
2018-04-24T01:03:47.812Z,22.3
2018-04-24T01:04:38.168Z,22.2
2018-04-24T01:05:28.231Z,22.2
2018-04-24T01:06:18.009Z,22.2
2018-04-24T01:07:08.349Z,22.2
2018-04-24T01:07:58.427Z,22.2
2018-04-24T01:08:48.493Z,22.2
2018-04-24T01:09:38.551Z,22.2
2018-04-24T01:10:28.601Z,22.2
2018-04-24T01:11:18.661Z,22.2
2018-04-24T01:12:08.448Z,22.2
2018-04-24T01:12:58.868Z,22.2
2018-04-24T01:13:48.867Z,22.2
2018-04-24T01:14:38.916Z,22.2
2018-04-24T01:15:28.983Z,22.2
2018-04-24T01:16:19.049Z,22.1
2018-04-24T01:17:09.106Z,22.1
2018-04-24T01:17:59.177Z,22.1
2018-04-24T01:18:49.229Z,22.1
2018-04-24T01:19:39.033Z,22.1
2018-04-24T01:20:29.093Z,22.1
2018-04-24T01:21:19.443Z,22.1
2018-04-24T01:22:09.505Z,22.1
2018-04-24T01:22:59.290Z,22.1
2018-04-24T01:23:49.638Z,22.1
2018-04-24T01:24:39.404Z,22.1
2018-04-24T01:25:29.753Z,22.1
2018-04-24T01:26:19.819Z,22.1
2018-04-24T01:27:09.611Z,22.1
2018-04-24T01:27:59.954Z,22.1
2018-04-24T01:28:50.007Z,22.1
2018-04-24T01:29:40.075Z,22.1
2018-04-24T01:30:30.145Z,22.1
2018-04-24T01:31:20.192Z,22.1
2018-04-24T01:32:10.276Z,22.1
2018-04-24T01:33:00.318Z,22.1
2018-04-24T01:33:50.108Z,22.1
2018-04-24T01:34:40.186Z,22.1
2018-04-24T01:35:30.250Z,22.1
2018-04-24T01:36:20.579Z,22
2018-04-24T01:37:10.655Z,22
2018-04-24T01:38:00.713Z,22
2018-04-24T01:38:50.513Z,22
2018-04-24T01:39:40.849Z,22
2018-04-24T01:40:30.903Z,22
2018-04-24T01:41:20.676Z,22
2018-04-24T01:42:11.023Z,22
2018-04-24T01:43:01.091Z,22
2018-04-24T01:43:50.595Z,22
2018-04-24T01:44:41.209Z,21.9
2018-04-24T01:45:30.993Z,22
2018-04-24T01:46:21.354Z,22
2018-04-24T01:47:11.425Z,21.9
2018-04-24T01:48:01.474Z,21.9
2018-04-24T01:48:51.542Z,21.9
2018-04-24T01:49:41.634Z,21.9
2018-04-24T01:50:31.680Z,21.9
2018-04-24T01:51:21.456Z,21.9
2018-04-24T01:52:11.864Z,21.9
2018-04-24T01:53:01.864Z,21.9
2018-04-24T01:53:51.923Z,21.9
2018-04-24T01:54:41.973Z,21.9
2018-04-24T01:55:32.041Z,21.9
2018-04-24T01:56:21.841Z,21.9
2018-04-24T01:57:12.183Z,21.9
2018-04-24T01:58:02.251Z,21.9
2018-04-24T01:58:52.297Z,21.9
2018-04-24T01:59:42.367Z,21.9
2018-04-24T02:00:32.420Z,21.9
2018-04-24T02:01:22.208Z,21.9
2018-04-24T02:02:12.574Z,21.9
2018-04-24T02:03:02.626Z,21.9
2018-04-24T02:03:52.407Z,21.9
2018-04-24T02:04:42.477Z,21.9
2018-04-24T02:05:32.533Z,21.8
2018-04-24T02:06:22.864Z,21.8
2018-04-24T02:07:12.659Z,21.9
2018-04-24T02:08:02.995Z,21.8
2018-04-24T02:08:53.052Z,21.8
2018-04-24T02:09:43.193Z,21.8
2018-04-24T02:10:33.192Z,21.8
2018-04-24T02:11:23.247Z,21.8
2018-04-24T02:12:13.311Z,21.8
2018-04-24T02:13:03.381Z,21.8
2018-04-24T02:13:53.436Z,21.8
2018-04-24T02:14:43.513Z,21.8
2018-04-24T02:15:33.291Z,21.8
2018-04-24T02:16:23.628Z,21.8
2018-04-24T02:17:13.694Z,21.8
2018-04-24T02:18:03.758Z,21.8
2018-04-24T02:18:53.828Z,21.8
2018-04-24T02:19:43.904Z,21.8
2018-04-24T02:20:33.963Z,21.8
2018-04-24T02:21:23.735Z,21.8
2018-04-24T02:22:13.821Z,21.8
2018-04-24T02:23:03.880Z,21.8
2018-04-24T02:23:53.924Z,21.8
2018-04-24T02:24:43.999Z,21.8
2018-04-24T02:25:34.358Z,21.8
2018-04-24T02:26:24.395Z,21.8
2018-04-24T02:27:14.182Z,21.7
2018-04-24T02:28:04.526Z,21.8
2018-04-24T02:28:54.321Z,21.7
2018-04-24T02:29:44.656Z,21.7
2018-04-24T02:30:34.748Z,21.7
2018-04-24T02:31:24.778Z,21.7
2018-04-24T02:32:14.874Z,21.7
2018-04-24T02:33:04.639Z,21.7
2018-04-24T02:33:54.980Z,21.7
2018-04-24T02:34:45.034Z,21.6
2018-04-24T02:35:35.195Z,21.7
2018-04-24T02:36:25.161Z,21.6
2018-04-24T02:37:15.224Z,21.6
2018-04-24T02:38:05.291Z,21.7
2018-04-24T02:38:55.342Z,21.7
2018-04-24T02:39:45.412Z,21.6
2018-04-24T02:40:35.484Z,21.6
2018-04-24T02:41:25.564Z,21.6
2018-04-24T02:42:15.324Z,21.6
2018-04-24T02:43:05.679Z,21.6
2018-04-24T02:43:55.742Z,21.6
2018-04-24T02:44:45.789Z,21.6
2018-04-24T02:45:35.597Z,21.6
2018-04-24T02:46:25.932Z,21.6
2018-04-24T02:47:15.976Z,21.6
2018-04-24T02:48:05.777Z,21.6
2018-04-24T02:48:56.121Z,21.6
2018-04-24T02:49:46.186Z,21.6
2018-04-24T02:50:36.246Z,21.6
2018-04-24T02:51:26.312Z,21.6
2018-04-24T02:52:16.367Z,21.6
2018-04-24T02:53:06.454Z,21.6
2018-04-24T02:53:56.498Z,21.6
2018-04-24T02:54:46.553Z,21.6
2018-04-24T02:55:36.638Z,21.6
2018-04-24T02:56:26.684Z,21.6
2018-04-24T02:57:16.846Z,21.6
2018-04-24T02:58:06.824Z,21.6
2018-04-24T02:58:56.889Z,21.6
2018-04-24T02:59:46.944Z,21.6
2018-04-24T03:00:37.011Z,21.6
2018-04-24T03:01:27.066Z,21.6
2018-04-24T03:02:17.145Z,21.5
2018-04-24T03:03:07.199Z,21.6
2018-04-24T03:03:57.280Z,21.6
2018-04-24T03:04:47.048Z,21.5
2018-04-24T03:05:37.394Z,21.5
2018-04-24T03:06:27.449Z,21.5
2018-04-24T03:07:17.523Z,21.5
2018-04-24T03:08:07.589Z,21.5
2018-04-24T03:08:57.655Z,21.5
2018-04-24T03:09:47.694Z,21.5
2018-04-24T03:10:37.779Z,21.4
2018-04-24T03:11:27.854Z,21.5
2018-04-24T03:12:17.899Z,21.5
2018-04-24T03:13:07.978Z,21.5
2018-04-24T03:13:58.017Z,21.5
2018-04-24T03:14:48.085Z,21.5
2018-04-24T03:15:38.145Z,21.5
2018-04-24T03:16:28.224Z,21.4
2018-04-24T03:17:18.274Z,21.4
2018-04-24T03:18:08.332Z,21.5
2018-04-24T03:18:58.396Z,21.4
2018-04-24T03:19:48.185Z,21.4
2018-04-24T03:20:38.552Z,21.4
2018-04-24T03:21:28.610Z,21.4
2018-04-24T03:22:18.657Z,21.4
2018-04-24T03:23:08.726Z,21.4
2018-04-24T03:23:58.492Z,21.4
2018-04-24T03:24:48.862Z,21.4
2018-04-24T03:25:38.954Z,21.4
2018-04-24T03:26:28.970Z,21.4
2018-04-24T03:27:19.066Z,21.4
2018-04-24T03:28:08.812Z,21.4
2018-04-24T03:28:59.166Z,21.4
2018-04-24T03:29:49.229Z,21.4
2018-04-24T03:30:39.344Z,21.4
2018-04-24T03:31:29.070Z,21.4
2018-04-24T03:32:19.414Z,21.4
2018-04-24T03:33:09.483Z,21.4
2018-04-24T03:33:59.543Z,21.4
2018-04-24T03:34:49.341Z,21.4
2018-04-24T03:35:39.111Z,21.4
2018-04-24T03:36:29.740Z,21.4
2018-04-24T03:37:19.521Z,21.4
2018-04-24T03:38:09.872Z,21.4
2018-04-24T03:38:59.915Z,21.3
2018-04-24T03:39:49.992Z,21.4
2018-04-24T03:40:40.065Z,21.4
2018-04-24T03:41:29.844Z,21.4
2018-04-24T03:42:19.891Z,21.4
2018-04-24T03:43:09.961Z,21.3
2018-04-24T03:44:00.328Z,21.4
2018-04-24T03:44:50.364Z,21.4
2018-04-24T03:45:40.445Z,21.3
2018-04-24T03:46:30.502Z,21.3
2018-04-24T03:47:20.632Z,21.3
2018-04-24T03:48:10.628Z,21.3
2018-04-24T03:49:00.689Z,21.3
2018-04-24T03:49:50.739Z,21.3
2018-04-24T03:50:40.529Z,21.3
2018-04-24T03:51:30.887Z,21.3
2018-04-24T03:52:20.939Z,21.3
2018-04-24T03:53:11.014Z,21.3
2018-04-24T03:54:01.067Z,21.3
2018-04-24T03:54:51.125Z,21.3
2018-04-24T03:55:41.200Z,21.3
2018-04-24T03:56:31.247Z,21.3
2018-04-24T03:57:21.658Z,21.3
2018-04-24T03:58:11.392Z,21.3
2018-04-24T03:59:01.468Z,21.3
2018-04-24T03:59:51.506Z,21.3
2018-04-24T04:00:41.593Z,21.3
2018-04-24T04:01:31.369Z,21.3
2018-04-24T04:02:21.414Z,21.3
2018-04-24T04:03:11.495Z,21.3
2018-04-24T04:04:01.846Z,21.3
2018-04-24T04:04:51.890Z,21.3
2018-04-24T04:05:41.957Z,21.3
2018-04-24T04:06:32.038Z,21.3
2018-04-24T04:07:22.077Z,21.4
2018-04-24T04:08:11.859Z,21.4
2018-04-24T04:09:02.223Z,21.4
2018-04-24T04:09:52.276Z,21.4
2018-04-24T04:10:42.338Z,21.4
2018-04-24T04:11:32.418Z,21.4
2018-04-24T04:12:22.470Z,21.5
2018-04-24T04:13:12.256Z,21.5
2018-04-24T04:14:02.612Z,21.6
2018-04-24T04:14:52.655Z,21.6
2018-04-24T04:15:42.726Z,21.6
2018-04-24T04:16:32.855Z,21.8
2018-04-24T04:17:22.849Z,21.8
2018-04-24T04:18:12.917Z,21.8
2018-04-24T04:19:03.027Z,21.8
2018-04-24T04:19:53.055Z,21.9
2018-04-24T04:20:43.098Z,21.9
2018-04-24T04:21:33.161Z,21.9
2018-04-24T04:22:23.271Z,21.9
2018-04-24T04:23:13.300Z,22
2018-04-24T04:24:03.081Z,21.9
2018-04-24T04:24:53.141Z,21.9
2018-04-24T04:25:43.481Z,21.9
2018-04-24T04:26:33.276Z,21.9
2018-04-24T04:27:23.608Z,21.9
2018-04-24T04:28:13.386Z,21.8
2018-04-24T04:29:03.747Z,21.8
2018-04-24T04:29:53.796Z,21.8
2018-04-24T04:30:43.877Z,21.8
2018-04-24T04:31:33.927Z,21.8
2018-04-24T04:32:23.993Z,21.8
2018-04-24T04:33:14.048Z,21.8
2018-04-24T04:34:04.131Z,21.8
2018-04-24T04:34:54.178Z,21.8
2018-04-24T04:35:44.252Z,21.8
2018-04-24T04:36:34.304Z,21.8
2018-04-24T04:37:24.368Z,21.8
2018-04-24T04:38:14.507Z,21.8
2018-04-24T04:39:04.220Z,21.8
2018-04-24T04:39:54.557Z,21.7
2018-04-24T04:40:44.615Z,21.7
2018-04-24T04:41:34.937Z,21.7
2018-04-24T04:42:24.748Z,21.7
2018-04-24T04:43:14.810Z,21.7
2018-04-24T04:44:04.883Z,21.7
2018-04-24T04:44:54.973Z,21.7
2018-04-24T04:45:45.024Z,21.7
2018-04-24T04:46:35.063Z,21.7
2018-04-24T04:47:24.854Z,21.7
2018-04-24T04:48:14.917Z,21.7
2018-04-24T04:49:05.320Z,21.6
2018-04-24T04:49:55.312Z,21.6
2018-04-24T04:50:45.390Z,21.6
2018-04-24T04:51:35.454Z,21.6
2018-04-24T04:52:25.217Z,21.6
2018-04-24T04:53:15.574Z,21.6
2018-04-24T04:54:05.632Z,21.6
2018-04-24T04:54:55.688Z,21.6
2018-04-24T04:55:45.492Z,21.6
2018-04-24T04:56:35.831Z,21.6
2018-04-24T04:57:25.880Z,21.6
2018-04-24T04:58:15.945Z,21.6
2018-04-24T04:59:06.026Z,21.6
2018-04-24T04:59:56.081Z,21.6
2018-04-24T05:00:46.132Z,21.6
2018-04-24T05:01:35.915Z,21.6
2018-04-24T05:02:26.272Z,21.6
2018-04-24T05:03:16.324Z,21.6
2018-04-24T05:04:06.384Z,21.6
2018-04-24T05:04:56.470Z,21.6
2018-04-24T05:05:46.518Z,21.6
2018-04-24T05:06:36.586Z,21.6
2018-04-24T05:07:26.639Z,21.6
2018-04-24T05:08:16.710Z,21.6
2018-04-24T05:09:06.777Z,21.6
2018-04-24T05:09:56.834Z,21.6
2018-04-24T05:10:46.644Z,21.6
2018-04-24T05:11:36.969Z,21.6
2018-04-24T05:12:27.021Z,21.6
2018-04-24T05:13:17.116Z,21.6
2018-04-24T05:14:07.140Z,21.6
2018-04-24T05:14:57.212Z,21.6
2018-04-24T05:15:47.280Z,21.6
2018-04-24T05:16:37.329Z,21.6
2018-04-24T05:17:27.125Z,21.6
2018-04-24T05:18:17.462Z,21.6
2018-04-24T05:19:07.534Z,21.5
2018-04-24T05:19:57.590Z,21.6
2018-04-24T05:20:47.644Z,21.6
2018-04-24T05:21:37.733Z,21.6
2018-04-24T05:22:27.807Z,21.5
2018-04-24T05:23:17.920Z,21.6
2018-04-24T05:24:07.897Z,21.5
2018-04-24T05:24:57.967Z,21.5
2018-04-24T05:25:48.104Z,21.6
2018-04-24T05:26:38.405Z,21.6
2018-04-24T05:27:28.191Z,21.6
2018-04-24T05:28:18.224Z,21.6
2018-04-24T05:29:08.300Z,21.6
2018-04-24T05:29:58.127Z,21.6
2018-04-24T05:30:48.427Z,21.6
2018-04-24T05:31:38.508Z,21.6
2018-04-24T05:32:28.543Z,21.6
2018-04-24T05:33:18.600Z,21.6
2018-04-24T05:34:08.672Z,21.6
2018-04-24T05:34:58.727Z,21.6
2018-04-24T05:35:48.695Z,21.6
2018-04-24T05:36:38.564Z,21.6
2018-04-24T05:37:28.922Z,21.6
2018-04-24T05:38:18.990Z,21.6
2018-04-24T05:39:09.090Z,21.6
2018-04-24T05:39:58.822Z,21.6
2018-04-24T05:40:49.181Z,21.6
2018-04-24T05:41:39.239Z,21.6
2018-04-24T05:42:29.021Z,21.6
2018-04-24T05:43:19.359Z,21.6
2018-04-24T05:44:09.423Z,21.6
2018-04-24T05:44:59.209Z,21.6
2018-04-24T05:45:49.542Z,21.6
2018-04-24T05:46:39.618Z,21.6
2018-04-24T05:47:29.398Z,21.6
2018-04-24T05:48:19.734Z,21.6
2018-04-24T05:49:09.810Z,21.6
2018-04-24T05:49:59.862Z,21.6
2018-04-24T05:50:49.931Z,21.6
2018-04-24T05:51:39.721Z,21.6
2018-04-24T05:52:30.072Z,21.6
2018-04-24T05:53:20.117Z,21.6
2018-04-24T05:54:10.195Z,21.6
2018-04-24T05:55:00.237Z,21.6
2018-04-24T05:55:50.304Z,21.6
2018-04-24T05:56:40.182Z,21.6
2018-04-24T05:57:30.155Z,21.6
2018-04-24T05:58:20.487Z,21.6
2018-04-24T05:59:10.567Z,21.6
2018-04-24T06:00:00.616Z,21.6
2018-04-24T06:00:50.702Z,21.6
2018-04-24T06:01:40.748Z,21.6
2018-04-24T06:02:30.813Z,21.6
2018-04-24T06:03:20.601Z,21.7
2018-04-24T06:04:10.931Z,21.7
2018-04-24T06:05:01.001Z,21.7
2018-04-24T06:05:51.080Z,21.7
2018-04-24T06:06:41.152Z,21.7
2018-04-24T06:07:31.190Z,21.8
2018-04-24T06:08:21.420Z,21.7
2018-04-24T06:09:11.335Z,21.7
2018-04-24T06:10:01.405Z,21.7
2018-04-24T06:10:51.447Z,21.8
2018-04-24T06:11:41.517Z,21.8
2018-04-24T06:12:31.573Z,21.8
2018-04-24T06:13:21.646Z,21.8
2018-04-24T06:14:11.421Z,21.8
2018-04-24T06:15:01.919Z,21.8
2018-04-24T06:15:51.819Z,21.8
2018-04-24T06:16:41.881Z,21.8
2018-04-24T06:17:31.414Z,21.8
2018-04-24T06:18:22.023Z,21.8
2018-04-24T06:19:11.508Z,21.8
2018-04-24T06:20:02.147Z,21.8
2018-04-24T06:20:52.219Z,21.8
2018-04-24T06:21:42.281Z,21.8
2018-04-24T06:22:32.540Z,21.8
2018-04-24T06:23:22.411Z,21.8
2018-04-24T06:24:12.476Z,21.8
2018-04-24T06:25:02.543Z,21.8
2018-04-24T06:25:52.313Z,21.8
2018-04-24T06:26:42.381Z,21.8
2018-04-24T06:27:32.708Z,21.8
2018-04-24T06:28:22.983Z,21.8
2018-04-24T06:29:12.855Z,21.9
2018-04-24T06:30:02.932Z,21.9
2018-04-24T06:30:52.969Z,21.9
2018-04-24T06:31:43.031Z,21.8
2018-04-24T06:32:33.099Z,21.8
2018-04-24T06:33:22.886Z,21.9
2018-04-24T06:34:12.950Z,21.9
2018-04-24T06:35:03.279Z,21.9
2018-04-24T06:35:53.229Z,21.9
2018-04-24T06:36:43.190Z,22.4
2018-04-24T06:37:35.435Z,22.8
2018-04-24T06:38:25.433Z,35.1
2018-04-24T06:39:15.494Z,47.4
2018-04-24T06:40:04.997Z,50.9
2018-04-24T06:40:55.354Z,50.9
2018-04-24T06:41:45.417Z,50.4
2018-04-24T06:42:35.489Z,48.8
2018-04-24T06:43:25.813Z,46.9
2018-04-24T06:44:15.886Z,46.6
2018-04-24T06:45:05.415Z,46.6
2018-04-24T06:45:55.738Z,46.5
2018-04-24T06:46:45.814Z,46.4
2018-04-24T06:47:35.873Z,46.1
2018-04-24T06:48:26.022Z,45.8
2018-04-24T06:49:16.264Z,45.4
2018-04-24T06:50:05.802Z,45.1
2018-04-24T06:50:56.394Z,44.6
2018-04-24T06:51:45.926Z,44.2
2018-04-24T06:52:36.594Z,43.8
2018-04-24T06:53:26.090Z,43.3
2018-04-24T06:54:16.380Z,42.9
2018-04-24T06:55:06.464Z,42.5
2018-04-24T06:55:56.523Z,44.2
2018-04-24T06:56:46.300Z,45.7
2018-04-24T06:57:36.139Z,51.3
2018-04-24T06:58:27.011Z,54.1
2018-04-24T06:59:17.041Z,52.6
2018-04-24T07:00:06.831Z,51.4
2018-04-24T07:00:57.520Z,50.5
2018-04-24T07:01:47.213Z,49.8
2018-04-24T07:02:37.298Z,49.3
2018-04-24T07:03:27.446Z,49.3
2018-04-24T07:04:17.165Z,49.3
2018-04-24T07:05:07.486Z,49.1
2018-04-24T07:05:57.570Z,48.9
2018-04-24T07:06:47.134Z,48.5
2018-04-24T07:07:37.182Z,48.1
2018-04-24T07:08:27.744Z,47.9
2018-04-24T07:09:17.821Z,47.8
2018-04-24T07:10:07.880Z,52.8
2018-04-24T07:10:57.168Z,55.6
2018-04-24T07:11:47.750Z,54.5
2018-04-24T07:12:37.821Z,53.3
2018-04-24T07:13:28.147Z,52.1
2018-04-24T07:14:18.216Z,50.7
2018-04-24T07:15:08.262Z,49.8
2018-04-24T07:15:58.048Z,48.9
2018-04-24T07:16:47.840Z,48.4
2018-04-24T07:17:38.188Z,48.1
2018-04-24T07:18:28.583Z,48
2018-04-24T07:19:18.029Z,47.9
2018-04-24T07:20:08.386Z,47.8
2018-04-24T07:20:58.743Z,50.1
2018-04-24T07:21:48.230Z,55.1
2018-04-24T07:22:38.857Z,56.5
2018-04-24T07:23:28.658Z,56.5
2018-04-24T07:24:18.702Z,56.4
2018-04-24T07:25:08.772Z,55.5
2018-04-24T07:25:59.115Z,54.2
2018-04-24T07:26:48.882Z,52.9
2018-04-24T07:27:38.407Z,52.3
2018-04-24T07:28:29.058Z,52.3
2018-04-24T07:29:19.091Z,52.9
2018-04-24T07:30:09.445Z,53.8
2018-04-24T07:30:59.518Z,54.4
2018-04-24T07:31:49.627Z,54.8
2018-04-24T07:32:39.354Z,55.1
2018-04-24T07:33:28.846Z,55.1
2018-04-24T07:34:19.766Z,55.1
2018-04-24T07:35:09.284Z,54.9
2018-04-24T07:35:59.605Z,54.8
2018-04-24T07:36:49.688Z,54.9
2018-04-24T07:37:40.084Z,55
2018-04-24T07:38:30.212Z,55.3
2018-04-24T07:39:19.908Z,55.5
2018-04-24T07:40:09.911Z,55.8
2018-04-24T07:41:00.228Z,56
2018-04-24T07:41:50.081Z,56.2
2018-04-24T07:42:40.418Z,56.3
2018-04-24T07:43:30.194Z,56.4
2018-04-24T07:44:20.559Z,56.5
2018-04-24T07:45:10.313Z,56.6
2018-04-24T07:46:00.407Z,56.8
2018-04-24T07:46:51.131Z,56.8
2018-04-24T07:47:40.531Z,57
2018-04-24T07:48:30.111Z,57.1
2018-04-24T07:49:20.923Z,57.3
2018-04-24T07:50:10.721Z,57.4
2018-04-24T07:51:01.085Z,57.6
2018-04-24T07:51:51.108Z,57.7
2018-04-24T07:52:41.181Z,57.8
2018-04-24T07:53:31.247Z,57.9
2018-04-24T07:54:20.754Z,58.1
2018-04-24T07:55:11.116Z,58.2
2018-04-24T07:56:00.965Z,58.3
2018-04-24T07:56:51.534Z,58.4
2018-04-24T07:58:31.710Z,58.8
2018-04-24T07:59:21.994Z,58.8
2018-04-24T08:00:11.786Z,59
2018-04-24T08:01:01.858Z,59.1
2018-04-24T08:01:51.935Z,59.2
2018-04-24T08:02:41.517Z,59.3
2018-04-24T08:03:31.585Z,59.5
2018-04-24T08:04:21.853Z,59.6
2018-04-24T08:05:11.898Z,59.8
2018-04-24T08:06:02.277Z,59.9
2018-04-24T08:06:52.295Z,60.1
2018-04-24T08:07:42.390Z,60.2
2018-04-24T08:08:32.173Z,60.3
2018-04-24T08:09:22.508Z,60.4
2018-04-24T08:10:11.990Z,60.5
2018-04-24T08:11:02.088Z,60.6
2018-04-24T08:11:51.853Z,60.7
2018-04-24T08:12:42.748Z,60.9
2018-04-24T08:13:32.548Z,60.9
2018-04-24T08:14:22.881Z,60.8
2018-04-24T08:15:12.673Z,60.9
2018-04-24T08:16:02.730Z,61.1
2018-04-24T08:16:53.073Z,61.2
2018-04-24T08:17:42.884Z,61.3
2018-04-24T08:18:33.214Z,61.4
2018-04-24T08:19:23.272Z,61.5
2018-04-24T08:20:13.326Z,61.6
2018-04-24T08:21:03.417Z,61.7
2018-04-24T08:21:53.212Z,61.7
2018-04-24T08:22:43.276Z,61.8
2018-04-24T08:23:33.578Z,61.9
2018-04-24T08:24:23.109Z,62.1
2018-04-24T08:25:13.473Z,62.3
2018-04-24T08:26:03.237Z,62.4
2018-04-24T08:26:53.882Z,62.4
2018-04-24T08:27:43.983Z,62.5
2018-04-24T08:28:33.522Z,62.6
2018-04-24T08:29:23.776Z,62.8
2018-04-24T08:30:14.139Z,62.9
2018-04-24T08:31:03.962Z,62.9
2018-04-24T08:31:54.258Z,63.1
2018-04-24T08:32:44.316Z,63.2
2018-04-24T08:33:33.928Z,63.3
2018-04-24T08:34:24.528Z,63.4
2018-04-24T08:35:14.512Z,63.6
2018-04-24T08:36:04.659Z,63.8
2018-04-24T08:36:54.639Z,63.9
2018-04-24T08:37:44.750Z,63.9
2018-04-24T08:38:34.233Z,64.1
2018-04-24T08:39:24.838Z,64.1
2018-04-24T08:40:14.618Z,64.2
2018-04-24T08:41:04.976Z,64.2
2018-04-24T08:41:55.251Z,64.2
2018-04-24T08:42:45.118Z,64.2
2018-04-24T08:43:35.248Z,64.2
2018-04-24T08:44:25.028Z,64.3
2018-04-24T08:45:15.329Z,64.4
2018-04-24T08:46:05.395Z,64.6
2018-04-24T08:46:55.427Z,64.8
2018-04-24T08:47:45.486Z,64.9
2018-04-24T08:48:35.567Z,65
2018-04-24T08:49:25.713Z,65.1
2018-04-24T08:50:15.693Z,65.2
2018-04-24T08:51:05.764Z,65.3
2018-04-24T08:51:55.548Z,65.3
2018-04-24T08:52:45.885Z,65.4
2018-04-24T08:53:35.949Z,65.6
2018-04-24T08:54:26.046Z,65.7
2018-04-24T08:55:16.167Z,65.8
2018-04-24T08:56:05.896Z,65.9
2018-04-24T08:56:56.211Z,66
2018-04-24T08:57:46.009Z,66.1
2018-04-24T08:58:36.345Z,66.1
2018-04-24T08:59:26.441Z,66.2
2018-04-24T09:00:16.486Z,66.1
2018-04-24T09:01:06.261Z,66
2018-04-24T09:01:56.608Z,65.8
2018-04-24T09:02:46.694Z,65.8
2018-04-24T09:03:36.470Z,65.9
2018-04-24T09:04:26.812Z,65.8
2018-04-24T09:05:16.585Z,66
2018-04-24T09:06:07.033Z,66.1
2018-04-24T09:06:57.003Z,66.3
2018-04-24T09:07:46.779Z,66.4
2018-04-24T09:08:37.561Z,66.5
2018-04-24T09:09:27.195Z,66.6
2018-04-24T09:10:17.270Z,66.6
2018-04-24T09:11:07.357Z,66.7
2018-04-24T09:11:57.403Z,66.8
2018-04-24T09:12:47.554Z,66.8
2018-04-24T09:13:37.267Z,66.9
2018-04-24T09:14:27.327Z,67.1
2018-04-24T09:15:17.657Z,67.2
2018-04-24T09:16:07.450Z,67.4
2018-04-24T09:16:57.784Z,67.5
2018-04-24T09:17:47.862Z,67.6
2018-04-24T09:18:37.665Z,67.7
2018-04-24T09:19:28.053Z,67.8
2018-04-24T09:20:17.489Z,67.8
2018-04-24T09:21:08.126Z,67.9
2018-04-24T09:21:57.650Z,67.9
2018-04-24T09:22:47.987Z,68
2018-04-24T09:23:38.037Z,68.1
2018-04-24T09:24:28.089Z,68.3
2018-04-24T09:25:18.188Z,68.3
2018-04-24T09:26:08.536Z,68.3
2018-04-24T09:26:59.069Z,68.1
2018-04-24T09:27:48.663Z,68.1
2018-04-24T09:28:38.453Z,68.1
2018-04-24T09:29:28.782Z,68.2
2018-04-24T09:30:18.583Z,68.3
2018-04-24T09:31:08.639Z,68.4
2018-04-24T09:31:58.698Z,68.5
2018-04-24T09:32:48.762Z,68.6
2018-04-24T09:33:40.060Z,68.7
2018-04-24T09:34:29.174Z,68.8
2018-04-24T09:35:19.247Z,68.9
2018-04-24T09:36:09.339Z,69
2018-04-24T09:36:59.368Z,69.1
2018-04-24T09:37:49.450Z,69.1
2018-04-24T09:38:39.305Z,69.1
2018-04-24T09:39:29.581Z,69.2
2018-04-24T09:40:19.335Z,69.3
2018-04-24T09:41:09.695Z,69.4
2018-04-24T09:41:59.501Z,69.5
2018-04-24T09:42:49.910Z,69.5
2018-04-24T09:43:39.639Z,69.4
2018-04-24T09:44:29.700Z,69.4
2018-04-24T09:45:19.748Z,69.4
2018-04-24T09:46:10.107Z,69.3
2018-04-24T09:47:00.143Z,69.4
2018-04-24T09:47:49.974Z,69.6
2018-04-24T09:48:40.286Z,69.8
2018-04-24T09:49:30.061Z,69.9
2018-04-24T09:50:20.443Z,69.9
2018-04-24T09:51:09.929Z,69.9
2018-04-24T09:52:00.567Z,69.9
2018-04-24T09:52:50.338Z,69.9
2018-04-24T09:53:39.829Z,69.9
2018-04-24T09:54:30.196Z,69.9
2018-04-24T09:55:20.840Z,69.9
2018-04-24T09:56:10.589Z,69.9
2018-04-24T09:57:00.946Z,69.9
2018-04-24T09:57:51.015Z,69.9
2018-04-24T09:58:55.455Z,69.9
2018-04-24T09:59:30.919Z,70.1
2018-04-24T10:00:21.234Z,70.2
2018-04-24T10:01:11.285Z,70.3
2018-04-24T10:02:01.334Z,70.3
2018-04-24T10:02:51.390Z,70.3
2018-04-24T10:03:41.456Z,70.3
2018-04-24T10:04:31.547Z,70.4
2018-04-24T10:05:21.344Z,70.4
2018-04-24T10:06:11.110Z,70.5
2018-04-24T10:07:01.442Z,70.6
2018-04-24T10:07:52.345Z,70.6
2018-04-24T10:08:41.306Z,70.7
2018-04-24T10:09:31.657Z,70.8
2018-04-24T10:10:21.983Z,70.9
2018-04-24T10:11:11.516Z,70.9
2018-04-24T10:12:01.284Z,71
2018-04-24T10:12:51.946Z,70.9
2018-04-24T10:13:42.775Z,70.9
2018-04-24T10:14:32.332Z,71
2018-04-24T10:15:22.382Z,71.1
2018-04-24T10:16:12.443Z,71.1
2018-04-24T10:17:02.545Z,71.2
2018-04-24T10:17:52.036Z,71.3
2018-04-24T10:18:42.632Z,71.4
2018-04-24T10:19:32.483Z,71.4
2018-04-24T10:20:22.794Z,71.4
2018-04-24T10:21:12.850Z,71.4
2018-04-24T10:22:02.924Z,71.4
2018-04-24T10:22:52.700Z,71.5
2018-04-24T10:23:43.058Z,71.6
2018-04-24T10:24:33.109Z,71.6
2018-04-24T10:25:22.892Z,71.6
2018-04-24T10:26:12.958Z,71.6
2018-04-24T10:27:03.045Z,71.6
2018-04-24T10:27:52.832Z,71.7
2018-04-24T10:28:43.182Z,71.8
2018-04-24T10:29:32.982Z,71.8
2018-04-24T10:30:23.305Z,71.8
2018-04-24T10:31:13.638Z,71.9
2018-04-24T10:32:03.736Z,71.9
2018-04-24T10:32:53.842Z,71.9
2018-04-24T10:33:43.856Z,72
2018-04-24T10:34:33.075Z,72.1
2018-04-24T10:35:23.689Z,72.1
2018-04-24T10:36:13.183Z,72.2
2018-04-24T10:37:04.105Z,72.1
2018-04-24T10:37:53.894Z,72.1
2018-04-24T10:38:43.673Z,72.1
2018-04-24T10:39:34.049Z,72.1
2018-04-24T10:40:23.523Z,72.1
2018-04-24T10:41:14.446Z,72.1
2018-04-24T10:42:04.613Z,72.1
2018-04-24T10:42:54.024Z,72.1
2018-04-24T10:43:44.764Z,72.1
2018-04-24T10:44:34.701Z,72.1
2018-04-24T10:45:24.748Z,72.1
2018-04-24T10:46:14.847Z,72.1
2018-04-24T10:47:04.639Z,72.1
2018-04-24T10:47:54.705Z,72.2
2018-04-24T10:48:44.766Z,72.2
2018-04-24T10:49:34.833Z,72.3
2018-04-24T10:50:24.729Z,72.3
2018-04-24T10:51:14.957Z,72.3
2018-04-24T10:52:05.009Z,72.3
2018-04-24T10:52:55.369Z,72.3
2018-04-24T10:53:45.144Z,72.3
2018-04-24T10:54:35.244Z,72.2
2018-04-24T10:55:25.592Z,72.2
2018-04-24T10:56:15.637Z,72.3
2018-04-24T10:57:05.401Z,72.2
2018-04-24T10:57:55.787Z,72.2
2018-04-24T10:58:45.873Z,72.2
2018-04-24T10:59:35.604Z,72.1
2018-04-24T11:00:25.662Z,72.2
2018-04-24T11:01:16.020Z,72.2
2018-04-24T11:02:06.093Z,72.2
2018-04-24T11:02:56.139Z,72.2
2018-04-24T11:03:46.208Z,72.3
2018-04-24T11:04:35.708Z,72.3
2018-04-24T11:05:26.336Z,72.3
2018-04-24T11:06:16.423Z,72.2
2018-04-24T11:07:06.488Z,72.1
2018-04-24T11:07:56.540Z,72.2
2018-04-24T11:08:46.350Z,72.3